sensor_id;sensor_type;location;lat;lon;timestamp;P1;durP1;ratioP1;P2;durP2;ratioP2
41739;SDS011;27422;52.444;13.300;2023-11-19T00:00:51;11.18;;;6.47;;
41739;SDS011;27422;52.444;13.300;2023-11-19T00:03:17;9.85;;;6.60;;
41739;SDS011;27422;52.444;13.300;2023-11-19T00:05:42;9.93;;;6.38;;
41739;SDS011;27422;52.444;13.300;2023-11-19T00:08:09;11.60;;;6.87;;
41739;SDS011;27422;52.444;13.300;2023-11-19T00:10:35;11.32;;;6.63;;
41739;SDS011;27422;52.444;13.300;2023-11-19T00:13:00;10.55;;;6.95;;
41739;SDS011;27422;52.444;13.300;2023-11-19T00:15:27;11.55;;;6.70;;
41739;SDS011;27422;52.444;13.300;2023-11-19T00:17:53;9.98;;;6.25;;
41739;SDS011;27422;52.444;13.300;2023-11-19T00:20:19;10.18;;;6.70;;
41739;SDS011;27422;52.444;13.300;2023-11-19T00:25:21;11.20;;;6.82;;
41739;SDS011;27422;52.444;13.300;2023-11-19T00:27:49;10.75;;;6.20;;
41739;SDS011;27422;52.444;13.300;2023-11-19T00:30:16;9.43;;;6.20;;
41739;SDS011;27422;52.444;13.300;2023-11-19T00:32:42;9.77;;;6.18;;
41739;SDS011;27422;52.444;13.300;2023-11-19T00:35:07;10.07;;;5.72;;
41739;SDS011;27422;52.444;13.300;2023-11-19T00:37:33;9.45;;;6.18;;
41739;SDS011;27422;52.444;13.300;2023-11-19T00:39:59;9.73;;;6.20;;
41739;SDS011;27422;52.444;13.300;2023-11-19T00:42:24;10.77;;;5.78;;
41739;SDS011;27422;52.444;13.300;2023-11-19T00:44:50;9.55;;;6.15;;
41739;SDS011;27422;52.444;13.300;2023-11-19T00:47:16;8.95;;;5.88;;
41739;SDS011;27422;52.444;13.300;2023-11-19T00:49:42;8.55;;;6.18;;
41739;SDS011;27422;52.444;13.300;2023-11-19T00:52:08;10.02;;;5.38;;
41739;SDS011;27422;52.444;13.300;2023-11-19T00:54:33;9.75;;;6.05;;
41739;SDS011;27422;52.444;13.300;2023-11-19T00:56:58;8.02;;;5.65;;
41739;SDS011;27422;52.444;13.300;2023-11-19T00:59:24;8.45;;;5.43;;
41739;SDS011;27422;52.444;13.300;2023-11-19T01:01:49;10.98;;;6.07;;
41739;SDS011;27422;52.444;13.300;2023-11-19T01:04:16;8.30;;;5.38;;
41739;SDS011;27422;52.444;13.300;2023-11-19T01:06:41;10.18;;;5.88;;
41739;SDS011;27422;52.444;13.300;2023-11-19T01:09:07;8.82;;;5.43;;
41739;SDS011;27422;52.444;13.300;2023-11-19T01:11:33;10.48;;;5.50;;
41739;SDS011;27422;52.444;13.300;2023-11-19T01:13:59;8.63;;;5.05;;
41739;SDS011;27422;52.444;13.300;2023-11-19T01:16:25;9.18;;;5.60;;
41739;SDS011;27422;52.444;13.300;2023-11-19T01:18:51;10.20;;;5.57;;
41739;SDS011;27422;52.444;13.300;2023-11-19T01:21:17;9.05;;;5.43;;
41739;SDS011;27422;52.444;13.300;2023-11-19T01:23:43;11.50;;;6.00;;
41739;SDS011;27422;52.444;13.300;2023-11-19T01:26:09;9.18;;;5.03;;
41739;SDS011;27422;52.444;13.300;2023-11-19T01:28:38;9.40;;;5.47;;
41739;SDS011;27422;52.444;13.300;2023-11-19T01:31:12;8.75;;;5.25;;
41739;SDS011;27422;52.444;13.300;2023-11-19T01:33:40;8.88;;;5.80;;
41739;SDS011;27422;52.444;13.300;2023-11-19T01:36:06;9.27;;;5.10;;
41739;SDS011;27422;52.444;13.300;2023-11-19T01:38:33;8.30;;;5.20;;
41739;SDS011;27422;52.444;13.300;2023-11-19T01:40:59;8.25;;;5.22;;
41739;SDS011;27422;52.444;13.300;2023-11-19T01:46:04;9.43;;;5.70;;
41739;SDS011;27422;52.444;13.300;2023-11-19T01:48:33;8.85;;;5.72;;
41739;SDS011;27422;52.444;13.300;2023-11-19T01:51:00;8.48;;;5.32;;
41739;SDS011;27422;52.444;13.300;2023-11-19T01:53:27;8.65;;;5.60;;
41739;SDS011;27422;52.444;13.300;2023-11-19T01:55:52;9.55;;;5.70;;
41739;SDS011;27422;52.444;13.300;2023-11-19T01:58:18;9.05;;;5.90;;
41739;SDS011;27422;52.444;13.300;2023-11-19T02:00:44;8.20;;;5.20;;
41739;SDS011;27422;52.444;13.300;2023-11-19T02:03:11;8.23;;;5.47;;
41739;SDS011;27422;52.444;13.300;2023-11-19T02:05:37;10.07;;;5.60;;
41739;SDS011;27422;52.444;13.300;2023-11-19T02:08:02;7.40;;;5.15;;
41739;SDS011;27422;52.444;13.300;2023-11-19T02:10:28;8.82;;;5.13;;
41739;SDS011;27422;52.444;13.300;2023-11-19T02:12:53;9.95;;;5.28;;
41739;SDS011;27422;52.444;13.300;2023-11-19T02:15:20;8.65;;;5.00;;
41739;SDS011;27422;52.444;13.300;2023-11-19T02:17:49;7.40;;;5.10;;
41739;SDS011;27422;52.444;13.300;2023-11-19T02:20:15;7.93;;;5.00;;
41739;SDS011;27422;52.444;13.300;2023-11-19T02:22:41;7.93;;;5.10;;
41739;SDS011;27422;52.444;13.300;2023-11-19T02:25:15;9.45;;;4.80;;
41739;SDS011;27422;52.444;13.300;2023-11-19T02:27:54;7.50;;;4.53;;
41739;SDS011;27422;52.444;13.300;2023-11-19T02:30:22;9.88;;;4.47;;
41739;SDS011;27422;52.444;13.300;2023-11-19T02:32:57;7.88;;;4.25;;
41739;SDS011;27422;52.444;13.300;2023-11-19T02:35:27;7.22;;;4.50;;
41739;SDS011;27422;52.444;13.300;2023-11-19T02:37:54;8.38;;;4.97;;
41739;SDS011;27422;52.444;13.300;2023-11-19T02:40:19;8.27;;;4.80;;
41739;SDS011;27422;52.444;13.300;2023-11-19T02:42:45;7.50;;;4.60;;
41739;SDS011;27422;52.444;13.300;2023-11-19T02:45:10;7.10;;;4.43;;
41739;SDS011;27422;52.444;13.300;2023-11-19T02:47:42;7.25;;;4.78;;
41739;SDS011;27422;52.444;13.300;2023-11-19T02:50:11;8.48;;;4.53;;
41739;SDS011;27422;52.444;13.300;2023-11-19T02:52:43;9.20;;;4.47;;
41739;SDS011;27422;52.444;13.300;2023-11-19T02:55:12;6.97;;;4.03;;
41739;SDS011;27422;52.444;13.300;2023-11-19T02:57:41;6.22;;;4.10;;
41739;SDS011;27422;52.444;13.300;2023-11-19T03:00:17;6.95;;;4.32;;
41739;SDS011;27422;52.444;13.300;2023-11-19T03:02:57;6.90;;;4.00;;
41739;SDS011;27422;52.444;13.300;2023-11-19T03:05:43;7.70;;;4.22;;
41739;SDS011;27422;52.444;13.300;2023-11-19T03:08:09;6.32;;;3.78;;
41739;SDS011;27422;52.444;13.300;2023-11-19T03:10:35;5.80;;;3.78;;
41739;SDS011;27422;52.444;13.300;2023-11-19T03:13:01;6.07;;;3.80;;
41739;SDS011;27422;52.444;13.300;2023-11-19T03:15:27;6.35;;;3.97;;
41739;SDS011;27422;52.444;13.300;2023-11-19T03:17:52;7.90;;;4.70;;
41739;SDS011;27422;52.444;13.300;2023-11-19T03:20:18;5.78;;;3.53;;
41739;SDS011;27422;52.444;13.300;2023-11-19T03:22:43;6.35;;;4.03;;
41739;SDS011;27422;52.444;13.300;2023-11-19T03:25:09;6.50;;;4.05;;
41739;SDS011;27422;52.444;13.300;2023-11-19T03:27:35;6.95;;;4.38;;
41739;SDS011;27422;52.444;13.300;2023-11-19T03:30:02;8.07;;;4.78;;
41739;SDS011;27422;52.444;13.300;2023-11-19T03:32:29;7.32;;;4.10;;
41739;SDS011;27422;52.444;13.300;2023-11-19T03:34:56;10.43;;;5.00;;
41739;SDS011;27422;52.444;13.300;2023-11-19T03:37:21;7.47;;;4.55;;
41739;SDS011;27422;52.444;13.300;2023-11-19T03:39:47;7.47;;;4.93;;
41739;SDS011;27422;52.444;13.300;2023-11-19T03:42:12;9.25;;;5.05;;
41739;SDS011;27422;52.444;13.300;2023-11-19T03:44:38;8.63;;;4.95;;
41739;SDS011;27422;52.444;13.300;2023-11-19T03:47:03;8.82;;;5.45;;
41739;SDS011;27422;52.444;13.300;2023-11-19T03:49:29;9.90;;;6.03;;
41739;SDS011;27422;52.444;13.300;2023-11-19T03:51:54;9.38;;;5.80;;
41739;SDS011;27422;52.444;13.300;2023-11-19T03:54:20;10.38;;;5.70;;
41739;SDS011;27422;52.444;13.300;2023-11-19T03:56:48;10.57;;;5.90;;
41739;SDS011;27422;52.444;13.300;2023-11-19T03:59:13;10.68;;;5.70;;
41739;SDS011;27422;52.444;13.300;2023-11-19T04:01:40;10.35;;;6.60;;
41739;SDS011;27422;52.444;13.300;2023-11-19T04:04:05;9.35;;;6.10;;
41739;SDS011;27422;52.444;13.300;2023-11-19T04:06:31;11.95;;;6.03;;
41739;SDS011;27422;52.444;13.300;2023-11-19T04:08:56;11.00;;;6.13;;
41739;SDS011;27422;52.444;13.300;2023-11-19T04:11:22;11.27;;;6.13;;
41739;SDS011;27422;52.444;13.300;2023-11-19T04:13:47;9.50;;;6.32;;
41739;SDS011;27422;52.444;13.300;2023-11-19T04:16:13;12.18;;;7.03;;
41739;SDS011;27422;52.444;13.300;2023-11-19T04:18:39;10.68;;;6.47;;
41739;SDS011;27422;52.444;13.300;2023-11-19T04:21:07;10.52;;;6.75;;
41739;SDS011;27422;52.444;13.300;2023-11-19T04:23:33;10.20;;;6.28;;
41739;SDS011;27422;52.444;13.300;2023-11-19T04:26:01;11.82;;;7.45;;
41739;SDS011;27422;52.444;13.300;2023-11-19T04:28:27;10.65;;;6.90;;
41739;SDS011;27422;52.444;13.300;2023-11-19T04:30:53;11.10;;;6.78;;
41739;SDS011;27422;52.444;13.300;2023-11-19T04:33:18;10.65;;;7.25;;
41739;SDS011;27422;52.444;13.300;2023-11-19T04:35:44;12.95;;;7.25;;
41739;SDS011;27422;52.444;13.300;2023-11-19T04:38:09;11.20;;;7.15;;
41739;SDS011;27422;52.444;13.300;2023-11-19T04:40:35;11.73;;;7.43;;
41739;SDS011;27422;52.444;13.300;2023-11-19T04:43:01;12.20;;;7.15;;
41739;SDS011;27422;52.444;13.300;2023-11-19T04:45:26;12.55;;;7.43;;
41739;SDS011;27422;52.444;13.300;2023-11-19T04:47:51;12.55;;;7.72;;
41739;SDS011;27422;52.444;13.300;2023-11-19T04:50:17;13.05;;;7.68;;
41739;SDS011;27422;52.444;13.300;2023-11-19T04:52:42;14.30;;;7.40;;
41739;SDS011;27422;52.444;13.300;2023-11-19T04:55:10;13.63;;;8.15;;
41739;SDS011;27422;52.444;13.300;2023-11-19T04:57:36;12.10;;;7.60;;
41739;SDS011;27422;52.444;13.300;2023-11-19T05:00:02;12.82;;;7.43;;
41739;SDS011;27422;52.444;13.300;2023-11-19T05:04:55;13.13;;;7.65;;
41739;SDS011;27422;52.444;13.300;2023-11-19T05:07:20;13.15;;;8.10;;
41739;SDS011;27422;52.444;13.300;2023-11-19T05:09:46;11.27;;;7.57;;
41739;SDS011;27422;52.444;13.300;2023-11-19T05:12:11;12.75;;;7.57;;
41739;SDS011;27422;52.444;13.300;2023-11-19T05:14:37;13.60;;;8.48;;
41739;SDS011;27422;52.444;13.300;2023-11-19T05:17:03;15.00;;;8.30;;
41739;SDS011;27422;52.444;13.300;2023-11-19T05:19:29;12.10;;;7.93;;
41739;SDS011;27422;52.444;13.300;2023-11-19T05:21:54;14.18;;;8.07;;
41739;SDS011;27422;52.444;13.300;2023-11-19T05:24:19;14.15;;;8.13;;
41739;SDS011;27422;52.444;13.300;2023-11-19T05:26:45;13.73;;;8.38;;
41739;SDS011;27422;52.444;13.300;2023-11-19T05:29:10;13.35;;;7.82;;
41739;SDS011;27422;52.444;13.300;2023-11-19T05:31:35;11.43;;;7.57;;
41739;SDS011;27422;52.444;13.300;2023-11-19T05:34:01;13.57;;;8.07;;
41739;SDS011;27422;52.444;13.300;2023-11-19T05:36:26;13.07;;;8.15;;
41739;SDS011;27422;52.444;13.300;2023-11-19T05:38:52;12.00;;;7.80;;
41739;SDS011;27422;52.444;13.300;2023-11-19T05:41:18;13.50;;;8.02;;
41739;SDS011;27422;52.444;13.300;2023-11-19T05:43:43;13.60;;;8.23;;
41739;SDS011;27422;52.444;13.300;2023-11-19T05:46:08;13.65;;;8.52;;
41739;SDS011;27422;52.444;13.300;2023-11-19T05:48:37;13.38;;;8.48;;
41739;SDS011;27422;52.444;13.300;2023-11-19T05:51:03;13.00;;;8.10;;
41739;SDS011;27422;52.444;13.300;2023-11-19T05:53:28;14.07;;;8.75;;
41739;SDS011;27422;52.444;13.300;2023-11-19T05:55:54;14.50;;;8.30;;
41739;SDS011;27422;52.444;13.300;2023-11-19T05:58:26;14.20;;;8.38;;
41739;SDS011;27422;52.444;13.300;2023-11-19T06:00:55;13.65;;;8.75;;
41739;SDS011;27422;52.444;13.300;2023-11-19T06:03:21;12.90;;;8.13;;
41739;SDS011;27422;52.444;13.300;2023-11-19T06:05:47;14.18;;;8.45;;
41739;SDS011;27422;52.444;13.300;2023-11-19T06:08:14;15.30;;;8.52;;
41739;SDS011;27422;52.444;13.300;2023-11-19T06:10:40;15.50;;;8.50;;
41739;SDS011;27422;52.444;13.300;2023-11-19T06:13:06;13.80;;;8.35;;
41739;SDS011;27422;52.444;13.300;2023-11-19T06:15:31;17.45;;;8.88;;
41739;SDS011;27422;52.444;13.300;2023-11-19T06:17:58;14.57;;;8.57;;
41739;SDS011;27422;52.444;13.300;2023-11-19T06:20:26;13.02;;;8.77;;
41739;SDS011;27422;52.444;13.300;2023-11-19T06:22:54;14.30;;;8.70;;
41739;SDS011;27422;52.444;13.300;2023-11-19T06:25:19;14.65;;;8.48;;
41739;SDS011;27422;52.444;13.300;2023-11-19T06:27:44;14.18;;;8.98;;
41739;SDS011;27422;52.444;13.300;2023-11-19T06:30:10;15.82;;;8.85;;
41739;SDS011;27422;52.444;13.300;2023-11-19T06:32:36;14.65;;;9.48;;
41739;SDS011;27422;52.444;13.300;2023-11-19T06:35:02;14.07;;;9.02;;
41739;SDS011;27422;52.444;13.300;2023-11-19T06:37:29;15.45;;;8.52;;
41739;SDS011;27422;52.444;13.300;2023-11-19T06:39:55;13.40;;;8.80;;
41739;SDS011;27422;52.444;13.300;2023-11-19T06:42:20;11.57;;;7.65;;
41739;SDS011;27422;52.444;13.300;2023-11-19T06:44:46;12.95;;;8.80;;
41739;SDS011;27422;52.444;13.300;2023-11-19T06:47:11;13.07;;;8.18;;
41739;SDS011;27422;52.444;13.300;2023-11-19T06:49:36;14.80;;;8.55;;
41739;SDS011;27422;52.444;13.300;2023-11-19T06:52:02;14.45;;;8.65;;
41739;SDS011;27422;52.444;13.300;2023-11-19T06:54:27;13.00;;;8.30;;
41739;SDS011;27422;52.444;13.300;2023-11-19T06:56:53;12.35;;;8.07;;
41739;SDS011;27422;52.444;13.300;2023-11-19T06:59:18;13.75;;;8.13;;
41739;SDS011;27422;52.444;13.300;2023-11-19T07:01:44;12.23;;;7.97;;
41739;SDS011;27422;52.444;13.300;2023-11-19T07:04:12;12.68;;;7.65;;
41739;SDS011;27422;52.444;13.300;2023-11-19T07:06:38;13.15;;;8.07;;
41739;SDS011;27422;52.444;13.300;2023-11-19T07:09:06;11.68;;;7.47;;
41739;SDS011;27422;52.444;13.300;2023-11-19T07:11:41;11.93;;;7.65;;
41739;SDS011;27422;52.444;13.300;2023-11-19T07:14:07;13.45;;;8.48;;
41739;SDS011;27422;52.444;13.300;2023-11-19T07:16:33;12.07;;;8.20;;
41739;SDS011;27422;52.444;13.300;2023-11-19T07:19:05;13.43;;;8.23;;
41739;SDS011;27422;52.444;13.300;2023-11-19T07:21:31;11.63;;;7.50;;
41739;SDS011;27422;52.444;13.300;2023-11-19T07:23:57;13.38;;;7.53;;
41739;SDS011;27422;52.444;13.300;2023-11-19T07:26:23;12.48;;;7.55;;
41739;SDS011;27422;52.444;13.300;2023-11-19T07:28:50;11.80;;;7.40;;
41739;SDS011;27422;52.444;13.300;2023-11-19T07:31:16;12.75;;;7.75;;
41739;SDS011;27422;52.444;13.300;2023-11-19T07:33:44;13.30;;;7.55;;
41739;SDS011;27422;52.444;13.300;2023-11-19T07:36:09;13.15;;;7.88;;
41739;SDS011;27422;52.444;13.300;2023-11-19T07:38:36;12.48;;;8.00;;
41739;SDS011;27422;52.444;13.300;2023-11-19T07:41:01;12.40;;;7.88;;
41739;SDS011;27422;52.444;13.300;2023-11-19T07:43:27;12.23;;;7.90;;
41739;SDS011;27422;52.444;13.300;2023-11-19T07:45:52;13.27;;;8.02;;
41739;SDS011;27422;52.444;13.300;2023-11-19T07:48:21;16.42;;;8.23;;
41739;SDS011;27422;52.444;13.300;2023-11-19T07:50:51;13.48;;;8.38;;
41739;SDS011;27422;52.444;13.300;2023-11-19T07:53:17;14.70;;;8.00;;
41739;SDS011;27422;52.444;13.300;2023-11-19T07:55:43;12.32;;;7.35;;
41739;SDS011;27422;52.444;13.300;2023-11-19T07:58:09;12.07;;;7.25;;
41739;SDS011;27422;52.444;13.300;2023-11-19T08:00:35;12.15;;;7.53;;
41739;SDS011;27422;52.444;13.300;2023-11-19T08:03:00;12.65;;;7.90;;
41739;SDS011;27422;52.444;13.300;2023-11-19T08:05:26;12.98;;;7.70;;
41739;SDS011;27422;52.444;13.300;2023-11-19T08:07:51;13.20;;;7.95;;
41739;SDS011;27422;52.444;13.300;2023-11-19T08:10:19;13.23;;;8.32;;
41739;SDS011;27422;52.444;13.300;2023-11-19T08:12:45;12.38;;;8.00;;
41739;SDS011;27422;52.444;13.300;2023-11-19T08:15:10;14.10;;;7.78;;
41739;SDS011;27422;52.444;13.300;2023-11-19T08:17:36;13.23;;;7.88;;
41739;SDS011;27422;52.444;13.300;2023-11-19T08:20:02;12.60;;;8.15;;
41739;SDS011;27422;52.444;13.300;2023-11-19T08:22:29;13.43;;;8.00;;
41739;SDS011;27422;52.444;13.300;2023-11-19T08:24:55;11.75;;;7.18;;
41739;SDS011;27422;52.444;13.300;2023-11-19T08:27:20;13.18;;;8.25;;
41739;SDS011;27422;52.444;13.300;2023-11-19T08:29:52;12.27;;;7.75;;
41739;SDS011;27422;52.444;13.300;2023-11-19T08:32:20;11.35;;;7.47;;
41739;SDS011;27422;52.444;13.300;2023-11-19T08:34:46;10.73;;;7.53;;
41739;SDS011;27422;52.444;13.300;2023-11-19T08:37:11;10.50;;;7.05;;
41739;SDS011;27422;52.444;13.300;2023-11-19T08:39:37;11.13;;;6.97;;
41739;SDS011;27422;52.444;13.300;2023-11-19T08:42:03;11.73;;;7.35;;
41739;SDS011;27422;52.444;13.300;2023-11-19T08:44:29;11.77;;;7.38;;
41739;SDS011;27422;52.444;13.300;2023-11-19T08:46:54;10.68;;;6.95;;
41739;SDS011;27422;52.444;13.300;2023-11-19T08:49:20;11.73;;;6.72;;
41739;SDS011;27422;52.444;13.300;2023-11-19T08:51:45;11.18;;;6.53;;
41739;SDS011;27422;52.444;13.300;2023-11-19T08:54:10;9.50;;;6.25;;
41739;SDS011;27422;52.444;13.300;2023-11-19T08:56:37;9.70;;;5.85;;
41739;SDS011;27422;52.444;13.300;2023-11-19T08:59:04;9.82;;;6.20;;
41739;SDS011;27422;52.444;13.300;2023-11-19T09:01:30;9.77;;;6.18;;
41739;SDS011;27422;52.444;13.300;2023-11-19T09:03:55;9.50;;;6.13;;
41739;SDS011;27422;52.444;13.300;2023-11-19T09:06:21;8.75;;;6.03;;
41739;SDS011;27422;52.444;13.300;2023-11-19T09:08:46;8.77;;;6.03;;
41739;SDS011;27422;52.444;13.300;2023-11-19T09:11:11;9.07;;;5.50;;
41739;SDS011;27422;52.444;13.300;2023-11-19T09:13:37;8.45;;;5.93;;
41739;SDS011;27422;52.444;13.300;2023-11-19T09:16:02;10.40;;;6.20;;
41739;SDS011;27422;52.444;13.300;2023-11-19T09:18:29;8.32;;;5.65;;
41739;SDS011;27422;52.444;13.300;2023-11-19T09:20:54;10.93;;;6.60;;
41739;SDS011;27422;52.444;13.300;2023-11-19T09:23:20;11.80;;;6.90;;
41739;SDS011;27422;52.444;13.300;2023-11-19T09:25:45;12.70;;;8.00;;
41739;SDS011;27422;52.444;13.300;2023-11-19T09:28:11;14.88;;;8.18;;
41739;SDS011;27422;52.444;13.300;2023-11-19T09:30:36;15.45;;;8.90;;
41739;SDS011;27422;52.444;13.300;2023-11-19T09:33:02;13.18;;;7.80;;
41739;SDS011;27422;52.444;13.300;2023-11-19T09:35:27;16.20;;;8.95;;
41739;SDS011;27422;52.444;13.300;2023-11-19T09:37:53;11.88;;;6.60;;
41739;SDS011;27422;52.444;13.300;2023-11-19T09:40:18;8.55;;;4.97;;
41739;SDS011;27422;52.444;13.300;2023-11-19T09:42:44;8.70;;;4.80;;
41739;SDS011;27422;52.444;13.300;2023-11-19T09:45:15;7.23;;;3.70;;
41739;SDS011;27422;52.444;13.300;2023-11-19T09:47:45;6.63;;;3.70;;
41739;SDS011;27422;52.444;13.300;2023-11-19T09:50:17;6.15;;;3.25;;
41739;SDS011;27422;52.444;13.300;2023-11-19T09:52:44;5.40;;;2.70;;
41739;SDS011;27422;52.444;13.300;2023-11-19T09:55:10;6.50;;;3.22;;
41739;SDS011;27422;52.444;13.300;2023-11-19T09:57:36;6.05;;;2.60;;
41739;SDS011;27422;52.444;13.300;2023-11-19T10:02:33;5.10;;;2.60;;
41739;SDS011;27422;52.444;13.300;2023-11-19T10:04:59;7.45;;;2.33;;
41739;SDS011;27422;52.444;13.300;2023-11-19T10:07:25;5.45;;;2.20;;
41739;SDS011;27422;52.444;13.300;2023-11-19T10:10:12;5.32;;;2.20;;
41739;SDS011;27422;52.444;13.300;2023-11-19T10:12:43;4.60;;;2.05;;
41739;SDS011;27422;52.444;13.300;2023-11-19T10:15:08;5.80;;;2.22;;
41739;SDS011;27422;52.444;13.300;2023-11-19T10:17:41;7.47;;;2.38;;
41739;SDS011;27422;52.444;13.300;2023-11-19T10:20:06;4.90;;;2.20;;
41739;SDS011;27422;52.444;13.300;2023-11-19T10:22:36;5.70;;;2.10;;
41739;SDS011;27422;52.444;13.300;2023-11-19T10:25:02;7.53;;;2.47;;
41739;SDS011;27422;52.444;13.300;2023-11-19T10:27:27;5.00;;;2.67;;
41739;SDS011;27422;52.444;13.300;2023-11-19T10:29:53;7.97;;;2.30;;
41739;SDS011;27422;52.444;13.300;2023-11-19T10:32:18;7.30;;;2.40;;
41739;SDS011;27422;52.444;13.300;2023-11-19T10:34:44;11.07;;;2.65;;
41739;SDS011;27422;52.444;13.300;2023-11-19T10:37:18;8.63;;;2.30;;
41739;SDS011;27422;52.444;13.300;2023-11-19T10:39:52;10.32;;;2.40;;
41739;SDS011;27422;52.444;13.300;2023-11-19T10:42:22;8.77;;;2.33;;
41739;SDS011;27422;52.444;13.300;2023-11-19T10:44:48;6.95;;;2.47;;
41739;SDS011;27422;52.444;13.300;2023-11-19T10:47:14;8.05;;;2.78;;
41739;SDS011;27422;52.444;13.300;2023-11-19T10:49:42;7.05;;;2.28;;
41739;SDS011;27422;52.444;13.300;2023-11-19T10:52:08;10.50;;;2.55;;
41739;SDS011;27422;52.444;13.300;2023-11-19T10:54:34;6.78;;;2.03;;
41739;SDS011;27422;52.444;13.300;2023-11-19T10:57:00;7.53;;;2.22;;
41739;SDS011;27422;52.444;13.300;2023-11-19T10:59:28;9.13;;;2.38;;
41739;SDS011;27422;52.444;13.300;2023-11-19T11:01:55;8.85;;;2.40;;
41739;SDS011;27422;52.444;13.300;2023-11-19T11:04:24;9.40;;;2.42;;
41739;SDS011;27422;52.444;13.300;2023-11-19T11:06:51;8.82;;;2.25;;
41739;SDS011;27422;52.444;13.300;2023-11-19T11:09:19;6.47;;;1.92;;
41739;SDS011;27422;52.444;13.300;2023-11-19T11:11:48;10.07;;;2.40;;
41739;SDS011;27422;52.444;13.300;2023-11-19T11:14:15;11.25;;;2.72;;
41739;SDS011;27422;52.444;13.300;2023-11-19T11:16:44;8.40;;;2.45;;
41739;SDS011;27422;52.444;13.300;2023-11-19T11:19:10;10.13;;;2.90;;
41739;SDS011;27422;52.444;13.300;2023-11-19T11:21:37;8.68;;;2.10;;
41739;SDS011;27422;52.444;13.300;2023-11-19T11:27:11;8.20;;;2.55;;
41739;SDS011;27422;52.444;13.300;2023-11-19T11:32:54;12.40;;;3.13;;
41739;SDS011;27422;52.444;13.300;2023-11-19T11:38:30;14.25;;;3.35;;
41739;SDS011;27422;52.444;13.300;2023-11-19T11:41:22;12.35;;;2.80;;
41739;SDS011;27422;52.444;13.300;2023-11-19T11:43:49;11.40;;;2.50;;
41739;SDS011;27422;52.444;13.300;2023-11-19T11:49:05;13.50;;;2.83;;
41739;SDS011;27422;52.444;13.300;2023-11-19T11:54:09;11.55;;;2.92;;
41739;SDS011;27422;52.444;13.300;2023-11-19T11:56:43;9.93;;;2.25;;
41739;SDS011;27422;52.444;13.300;2023-11-19T11:59:48;13.57;;;2.42;;
41739;SDS011;27422;52.444;13.300;2023-11-19T12:02:15;14.32;;;3.03;;
41739;SDS011;27422;52.444;13.300;2023-11-19T12:04:41;12.20;;;3.30;;
41739;SDS011;27422;52.444;13.300;2023-11-19T12:07:15;11.65;;;2.67;;
41739;SDS011;27422;52.444;13.300;2023-11-19T12:09:42;13.32;;;2.90;;
41739;SDS011;27422;52.444;13.300;2023-11-19T12:20:02;11.10;;;3.47;;
41739;SDS011;27422;52.444;13.300;2023-11-19T12:22:28;11.35;;;2.67;;
41739;SDS011;27422;52.444;13.300;2023-11-19T12:24:53;14.15;;;2.90;;
41739;SDS011;27422;52.444;13.300;2023-11-19T12:27:19;11.73;;;2.80;;
41739;SDS011;27422;52.444;13.300;2023-11-19T12:29:47;13.27;;;3.15;;
41739;SDS011;27422;52.444;13.300;2023-11-19T12:32:13;10.88;;;3.70;;
41739;SDS011;27422;52.444;13.300;2023-11-19T12:34:38;11.70;;;2.92;;
41739;SDS011;27422;52.444;13.300;2023-11-19T12:37:04;12.25;;;3.20;;
41739;SDS011;27422;52.444;13.300;2023-11-19T12:39:30;9.40;;;3.28;;
41739;SDS011;27422;52.444;13.300;2023-11-19T12:41:56;14.98;;;3.42;;
41739;SDS011;27422;52.444;13.300;2023-11-19T12:44:53;17.35;;;3.33;;
41739;SDS011;27422;52.444;13.300;2023-11-19T12:47:21;13.27;;;3.13;;
41739;SDS011;27422;52.444;13.300;2023-11-19T12:49:55;18.67;;;3.40;;
41739;SDS011;27422;52.444;13.300;2023-11-19T12:52:24;14.70;;;3.30;;
41739;SDS011;27422;52.444;13.300;2023-11-19T12:54:49;16.10;;;3.25;;
41739;SDS011;27422;52.444;13.300;2023-11-19T12:57:15;22.20;;;3.78;;
41739;SDS011;27422;52.444;13.300;2023-11-19T12:59:40;18.70;;;4.03;;
41739;SDS011;27422;52.444;13.300;2023-11-19T13:02:06;15.40;;;3.58;;
41739;SDS011;27422;52.444;13.300;2023-11-19T13:04:32;13.63;;;3.25;;
41739;SDS011;27422;52.444;13.300;2023-11-19T13:06:58;17.85;;;3.45;;
41739;SDS011;27422;52.444;13.300;2023-11-19T13:09:25;15.90;;;3.80;;
41739;SDS011;27422;52.444;13.300;2023-11-19T13:11:54;13.55;;;3.67;;
41739;SDS011;27422;52.444;13.300;2023-11-19T13:14:21;14.40;;;3.83;;
41739;SDS011;27422;52.444;13.300;2023-11-19T13:16:47;13.57;;;3.42;;
41739;SDS011;27422;52.444;13.300;2023-11-19T13:19:13;14.63;;;3.33;;
41739;SDS011;27422;52.444;13.300;2023-11-19T13:21:39;13.10;;;3.97;;
41739;SDS011;27422;52.444;13.300;2023-11-19T13:24:05;18.77;;;3.67;;
41739;SDS011;27422;52.444;13.300;2023-11-19T13:26:31;19.38;;;4.82;;
41739;SDS011;27422;52.444;13.300;2023-11-19T13:28:57;14.77;;;3.67;;
41739;SDS011;27422;52.444;13.300;2023-11-19T13:31:22;18.17;;;3.55;;
41739;SDS011;27422;52.444;13.300;2023-11-19T13:33:47;17.95;;;4.13;;
41739;SDS011;27422;52.444;13.300;2023-11-19T13:36:13;15.85;;;3.55;;
41739;SDS011;27422;52.444;13.300;2023-11-19T13:38:38;18.30;;;3.70;;
41739;SDS011;27422;52.444;13.300;2023-11-19T13:41:06;16.48;;;3.85;;
41739;SDS011;27422;52.444;13.300;2023-11-19T13:43:31;20.55;;;4.22;;
41739;SDS011;27422;52.444;13.300;2023-11-19T13:46:17;14.10;;;3.75;;
41739;SDS011;27422;52.444;13.300;2023-11-19T13:48:43;18.38;;;4.10;;
41739;SDS011;27422;52.444;13.300;2023-11-19T13:51:08;15.13;;;3.53;;
41739;SDS011;27422;52.444;13.300;2023-11-19T13:53:35;13.00;;;3.53;;
41739;SDS011;27422;52.444;13.300;2023-11-19T13:56:00;16.33;;;4.07;;
41739;SDS011;27422;52.444;13.300;2023-11-19T13:58:26;21.23;;;4.28;;
41739;SDS011;27422;52.444;13.300;2023-11-19T14:00:51;19.55;;;6.30;;
41739;SDS011;27422;52.444;13.300;2023-11-19T14:03:17;19.55;;;3.83;;
41739;SDS011;27422;52.444;13.300;2023-11-19T14:05:43;21.08;;;4.07;;
41739;SDS011;27422;52.444;13.300;2023-11-19T14:08:08;16.90;;;4.47;;
41739;SDS011;27422;52.444;13.300;2023-11-19T14:10:37;17.48;;;4.10;;
41739;SDS011;27422;52.444;13.300;2023-11-19T14:13:04;18.05;;;3.88;;
41739;SDS011;27422;52.444;13.300;2023-11-19T14:15:30;19.13;;;4.32;;
41739;SDS011;27422;52.444;13.300;2023-11-19T14:17:56;19.52;;;4.63;;
41739;SDS011;27422;52.444;13.300;2023-11-19T14:20:21;16.73;;;3.97;;
41739;SDS011;27422;52.444;13.300;2023-11-19T14:22:46;22.08;;;3.85;;
41739;SDS011;27422;52.444;13.300;2023-11-19T14:25:14;19.35;;;4.93;;
41739;SDS011;27422;52.444;13.300;2023-11-19T14:27:40;19.05;;;4.13;;
41739;SDS011;27422;52.444;13.300;2023-11-19T14:30:07;17.85;;;3.22;;
41739;SDS011;27422;52.444;13.300;2023-11-19T14:32:37;21.88;;;3.65;;
41739;SDS011;27422;52.444;13.300;2023-11-19T14:35:03;21.08;;;3.45;;
41739;SDS011;27422;52.444;13.300;2023-11-19T14:37:29;15.85;;;3.53;;
41739;SDS011;27422;52.444;13.300;2023-11-19T14:39:59;21.30;;;4.07;;
41739;SDS011;27422;52.444;13.300;2023-11-19T14:42:34;21.15;;;3.83;;
41739;SDS011;27422;52.444;13.300;2023-11-19T14:45:00;18.55;;;3.20;;
41739;SDS011;27422;52.444;13.300;2023-11-19T14:47:26;16.95;;;3.17;;
41739;SDS011;27422;52.444;13.300;2023-11-19T14:49:52;20.40;;;4.30;;
41739;SDS011;27422;52.444;13.300;2023-11-19T14:52:17;16.73;;;3.67;;
41739;SDS011;27422;52.444;13.300;2023-11-19T14:54:42;19.67;;;3.97;;
41739;SDS011;27422;52.444;13.300;2023-11-19T14:57:08;20.05;;;3.58;;